Tiempo atmosférico en la estación meteorológica de Carcaixent, València/Valencia (25 m.)



Fecha
DESCASC
Temp. máxima en grados centígrados (hora)
DESCASC
Temp. mínima en grados centígrados (hora)
DESCASC
Temp. media en grados centígrados
DESCASC
Racha de viento máxima en m/sg (hora)
DESCASC
Velocidad máxima media en intervalos de 10 minutos(hora)
DESCASC
Precipitaciones diarias en mm
DESCASC
Precipitaciones de 00:00 a 06:00 en mm
DESCASC
Precipitaciones de 06:00 a 12:00 en mm
DESCASC
Precipitaciones de 12:00 a 18:00 en mm
DESCASC
Precipitaciones de 18:00 a 24:00 en mm
DESCASC
19-01-2020 12.3 (02:30) 6.7 (00:00) 9.5 18.89 (23:50) 9.44 (22:00) 53 0.6 6.2 31.6 14.6
21-01-2020 11.9 (16:40) 7.5 (00:00) 9.7 16.11 (05:10) 8.61 (05:10) 86.6 51.4 32.8 2.4 0
20-01-2020 7.9 (21:50) 4.4 (00:00) 6.2 18.61 (13:10) 8.61 (10:20) 104.2 29.8 20.6 16.2 37.6
17-01-2020 19.2 (13:40) 5.6 (00:00) 12.4 12.22 (13:20) 7.5 (13:20) 0 0 0 0 0
10-01-2020 16 (13:50) 4 (00:00) 10 12.78 (16:10) 7.22 (16:20) 0 0 0 0 0
18-01-2020 20.1 (16:00) 6 (00:00) 13.1 8.61 (15:00) 4.72 (14:30) 0 0 0 0 0
09-01-2020 17.6 (15:30) 3.8 (00:00) 10.7 5.56 (10:20) 3.89 (10:20) 0 0 0 0 0
03-01-2020 15.6 (13:40) 1.8 (00:00) 8.7 5.83 (16:10) 3.61 (16:00) 0 0 0 0 0
04-01-2020 17.3 (15:20) 2.5 (00:00) 9.9 5.28 (10:00) 3.61 (09:00) 0 0 0 0 0
13-01-2020 19.5 (15:20) 2 (00:00) 10.8 7.5 (18:00) 3.61 (17:50) 0 0 0 0 0
22-01-2020 11.1 (15:40) 5.4 (00:00) 8.3 5 (14:30) 3.33 (14:30) 3.6 0 2.2 1.4 0
16-01-2020 20.3 (15:20) 6.8 (00:00) 13.5 4.72 (00:10) 3.33 (00:10) 0 0 0 0 0
05-01-2020 19.7 (16:20) 2.2 (00:00) 11 4.72 (03:00) 3.33 (03:00) 0 0 0 0 0
14-01-2020 18.9 (15:00) 3.2 (00:00) 11 5.83 (11:50) 3.33 (11:50) 0 0 0 0 0
08-01-2020 13.5 (16:50) 2.5 (00:00) 8 4.72 (05:30) 3.06 (05:40) 0 0 0 0 0
15-01-2020 19.8 (16:20) 3.8 (00:00) 11.8 5 (14:00) 3.06 (03:30) 0 0 0 0 0
23-01-2020 14.5 (15:40) 3.9 (00:00) 9.2 5.28 (15:50) 3.06 (14:40) 0 0 0 0 0
12-01-2020 15.7 (15:00) 0.1 (02:30) 7.9 4.17 (09:50) 2.78 (09:50) 0 0 0 0 0
27-12-2019 21.7 (15:10) 6 (00:00) 13.9 4.17 (09:20) 2.78 (07:40) 0 0 0 0 0
02-01-2020 15.8 (15:20) 1.7 (00:00) 8.8 3.61 (10:20) 2.78 (10:20) 0 0 0 0 0
01-01-2020 15.7 (15:50) 1.6 (00:00) 8.6 4.17 (07:40) 2.78 (07:40) 0 0 0 0 0
29-12-2019 16.7 (15:50) 4.7 (00:00) 10.7 4.72 (11:50) 2.78 (11:50) 0 0 0 0 0
28-12-2019 15.8 (15:10) 3.5 (00:00) 9.7 4.72 (07:30) 2.78 (07:30) 0 0 0 0 0
11-01-2020 16.6 (16:10) 1.8 (00:00) 9.2 4.17 (10:00) 2.5 (05:40) 0 0 0 0 0
07-01-2020 18.4 (15:40) 2.1 (00:00) 10.2 4.17 (09:40) 2.5 (07:20) 0 0 0 0 0
06-01-2020 17 (14:50) 2.9 (00:00) 10 4.72 (16:30) 2.5 (16:30) 0 0 0 0 0
25-01-2020 14 (15:50) 6.8 (00:00) 10.4 3.33 (12:00) 2.22 (12:00) 0.2 0 0 0 0.2
24-01-2020 13.3 (15:00) 4.9 (00:00) 9.1 3.06 (14:30) 1.39 (22:00) 0 0 0 0 0
31-12-2019 -- (--) -- (--) -- -- (--) -- (--) 0 0 0 0 0
30-12-2019 -- (--) -- (--) -- -- (--) -- (--) 0 0 0 0 0

Gráficas

Temp. máximas Temp. mínimas Temp. medias Precipitaciones Rachas de viento máximas Velocidades máximas media en intervalos de 10 minutos

Datos horarios

Fecha y hora oficial Temperatura (ºC) Velocidad del viento (km/h) Dirección del viento Racha (km/h) Dirección de racha Precipitación (mm) Presión (hPa) Tendencia (hPa) Humedad (%)
2020-01-25 23:00:00 10.7 0 Calma 3 Sudeste 0 -- -- 96
2020-01-25 22:00:00 11 0 Calma 4 Sudoeste 0 -- -- 95
2020-01-25 21:00:00 11.2 2 Sudoeste 6 Sur 0 -- -- 95
2020-01-25 20:00:00 11.3 4 Sur 6 Sur 0 -- -- 94
2020-01-25 19:00:00 12.3 0 Calma 10 Nordeste 0.2 -- -- 93
2020-01-25 18:00:00 13.2 3 Este 6 Sudoeste 0 -- -- 91
2020-01-25 17:00:00 13.7 0 Calma 9 Noroeste 0 -- -- 88
2020-01-25 16:00:00 14 4 Norte 11 Noroeste 0 -- -- 85
2020-01-25 15:00:00 13.3 2 Noroeste 11 Nordeste 0 -- -- 87
2020-01-25 14:00:00 13.3 5 Norte 11 Norte 0 -- -- 86
2020-01-25 13:00:00 13 0 Calma 12 Sur 0 -- -- 87
2020-01-25 12:00:00 11.9 8 Sur 12 Sudeste 0 -- -- 93
2020-01-25 11:00:00 10.9 5 Sur 10 Sur 0 -- -- 96
2020-01-25 10:00:00 10.4 5 Sur 8 Sudeste 0 -- -- 97
2020-01-25 09:00:00 9.9 4 Sur 9 Sur 0 -- -- 97
2020-01-25 08:00:00 9.6 3 Sur 10 Sur 0 -- -- 97
2020-01-25 07:00:00 9.6 4 Sur 6 Sudoeste 0 -- -- 97
2020-01-25 06:00:00 9.4 3 Sur 6 Sur 0 -- -- 98
2020-01-25 05:00:00 9.2 3 Sur 6 Sur 0 -- -- 98
2020-01-25 04:00:00 8.6 3 Sudeste 6 Oeste 0 -- -- 97
2020-01-25 03:00:00 8.7 0 Calma -- -- 0 -- -- 97
2020-01-25 02:00:00 8.5 0 Calma -- -- 0 -- -- 97
2020-01-25 01:00:00 8.1 0 Calma 0 Calma 0 -- -- 97
2020-01-25 00:00:00 6.8 0 Calma 4 Sudoeste 0 -- -- 95
2020-01-24 23:00:00 7.1 0 Calma 6 Sudeste 0 -- -- 93
2020-01-24 22:00:00 8.8 5 Sudeste 7 Sudeste 0 -- -- 93
2020-01-24 21:00:00 10.6 0 Calma 5 Sur 0 -- -- 94
2020-01-24 20:00:00 11.2 2 Este 8 Oeste 0 -- -- 93
2020-01-24 19:00:00 11.6 2 Sudeste 4 Sudeste 0 -- -- 91
2020-01-24 18:00:00 12.2 2 Sur 6 Sur 0 -- -- 89
2020-01-24 17:00:00 12.9 0 Calma 4 Este 0 -- -- 85
2020-01-24 16:00:00 13.1 0 Calma 6 Nordeste 0 -- -- 82
2020-01-24 15:00:00 13.3 3 Oeste 11 Oeste 0 -- -- 83
2020-01-24 14:00:00 12.6 2 Norte 7 Noroeste 0 -- -- 84
2020-01-24 13:00:00 11.5 0 Calma -- -- 0 -- -- 94
2020-01-24 12:00:00 10.6 0 Calma -- -- 0 -- -- 97
2020-01-24 11:00:00 10.3 0 Calma -- -- 0 -- -- 98
2020-01-24 10:00:00 9.7 0 Calma -- -- 0 -- -- 98
2020-01-24 09:00:00 8.4 0 Calma -- -- 0 -- -- 98
2020-01-24 08:00:00 8.2 0 Calma -- -- 0 -- -- 98
2020-01-24 07:00:00 8 0 Calma -- -- 0 -- -- 98
2020-01-24 06:00:00 7.4 0 Calma -- -- 0 -- -- 98
2020-01-24 05:00:00 7 0 Calma -- -- 0 -- -- 98
2020-01-24 04:00:00 5.5 0 Calma -- -- 0 -- -- 97
2020-01-24 03:00:00 5.3 0 Calma 5 Sudoeste 0 -- -- 97
2020-01-24 02:00:00 5 0 Calma 5 Sudoeste 0 -- -- 96
2020-01-24 01:00:00 5.6 2 Oeste 4 Sur 0 -- -- 96
2020-01-24 00:00:00 5.8 3 Sur 6 Sudeste 0 -- -- 96
2020-01-23 23:00:00 6 4 Sur 8 Sur 0 -- -- 94
2020-01-23 22:00:00 6.1 4 Sur 6 Sur 0 -- -- 93
2020-01-23 21:00:00 7.2 2 Sur 5 Sur 0 -- -- 92
2020-01-23 20:00:00 8.7 0 Calma 6 Sur 0 -- -- 90
2020-01-23 19:00:00 10.4 4 Norte 11 Nordeste 0 -- -- 89
2020-01-23 18:00:00 11.9 5 Nordeste 17 Este 0 -- -- 85
2020-01-23 17:00:00 13.1 8 Este 19 Este 0 -- -- 80
2020-01-23 16:00:00 13.8 11 Este 19 Este 0 -- -- 77
2020-01-23 15:00:00 14.2 8 Nordeste 17 Nordeste 0 -- -- 76
2020-01-23 14:00:00 13.4 9 Nordeste 15 Norte 0 -- -- 76
2020-01-23 13:00:00 12.6 5 Nordeste 9 Norte 0 -- -- 71
2020-01-23 12:00:00 11.2 4 Sur 13 Sur 0 -- -- 76
2020-01-23 11:00:00 8.9 6 Sudoeste 12 Sur 0 -- -- 86
2020-01-23 10:00:00 6.5 5 Sudoeste 9 Sur 0 -- -- 96
2020-01-23 09:00:00 4.1 4 Sur 8 Sudoeste 0 -- -- 96
2020-01-23 08:00:00 4.2 0 Calma 10 Sur 0 -- -- 94
2020-01-23 07:00:00 4.8 7 Sur 10 Sur 0 -- -- 94
2020-01-23 06:00:00 5.6 7 Sur 14 Sur 0 -- -- 94
2020-01-23 05:00:00 5.3 8 Sur 12 Sur 0 -- -- 94
2020-01-23 04:00:00 5.8 8 Sur 14 Sur 0 -- -- 94
2020-01-23 03:00:00 5.9 8 Sur 11 Sur 0 -- -- 94
2020-01-23 02:00:00 6.8 7 Sur 14 Sur 0 -- -- 94
2020-01-23 01:00:00 7 6 Sur 12 Sur 0 -- -- 96
2020-01-23 00:00:00 6.7 7 Sur 12 Sur 0 -- -- 97
2020-01-22 23:00:00 6.3 5 Sur 10 Sur 0 -- -- 96
2020-01-22 22:00:00 6 5 Sur 10 Sur 0 -- -- 96
2020-01-22 21:00:00 5.8 0 Calma -- -- 0 -- -- 94
2020-01-22 20:00:00 6.8 0 Calma 5 Sur 0 -- -- 93
2020-01-22 19:00:00 8.2 4 Sudeste 6 Sudeste 0 -- -- 91
2020-01-22 18:00:00 10.6 3 Oeste 4 Sudoeste 0 -- -- 88
2020-01-22 17:00:00 11 0 Calma 8 Norte 0 -- -- 85
2020-01-22 16:00:00 11.1 3 Norte 10 Noroeste 0 -- -- 87
2020-01-22 15:00:00 10.1 6 Norte 18 Nordeste 0 -- -- 97
2020-01-22 14:00:00 11 5 Norte 9 Norte 0.8 -- -- 98
2020-01-22 13:00:00 10.4 2 Sudeste 8 Sudoeste 0.6 -- -- 98
2020-01-22 12:00:00 10.2 0 Calma 12 Nordeste 1.4 -- -- 99
2020-01-22 11:00:00 10.3 0 Calma 10 Sur 0 -- -- 99
2020-01-22 10:00:00 9.3 6 Sur 13 Sur 0.2 -- -- 99
2020-01-22 09:00:00 8.6 7 Sur 13 Sur 0 -- -- 99
2020-01-22 08:00:00 8.2 9 Sur 15 Sur 0 -- -- 99
2020-01-22 07:00:00 8.3 9 Sur 13 Sur 0.6 -- -- 99
2020-01-22 06:00:00 8.1 6 Sur 10 Sur 0 -- -- 99
2020-01-22 05:00:00 8.2 4 Sur 7 Sur 0 -- -- 99
2020-01-22 04:00:00 7.2 2 Sudeste 5 Sur 0 -- -- 98
2020-01-22 03:00:00 8 4 Sudeste 5 Sudeste 0 -- -- 98
2020-01-22 02:00:00 8.9 3 Sur 9 Sudoeste 0 -- -- 98
2020-01-22 01:00:00 8.6 3 Sudeste 6 Sudoeste 0 -- -- 98
2020-01-22 00:00:00 8.4 3 Noroeste 8 Sur 0 -- -- 98
2020-01-21 23:00:00 8.6 3 Nordeste 5 Norte 0 -- -- 97
2020-01-21 22:00:00 8.8 2 Sur 5 Sudeste 0 -- -- 97
2020-01-21 21:00:00 8.6 2 Oeste 5 Oeste 0 -- -- 97
2020-01-21 20:00:00 8.7 2 Este 10 Sur 0 -- -- 96
2020-01-21 19:00:00 9.7 6 Sur 8 Sur 0 -- -- 95
2020-01-21 18:00:00 11.1 3 Sudoeste 9 Sudeste 0 -- -- 95
2020-01-21 17:00:00 11.9 4 Sur 10 Noroeste 0 -- -- 95
2020-01-21 16:00:00 11.2 6 Noroeste 15 Noroeste 0 -- -- 96
2020-01-21 15:00:00 10.6 9 Nordeste 21 Norte 0 -- -- 96
2020-01-21 14:00:00 10.5 14 Norte 23 Norte 0.8 -- -- 96
2020-01-21 13:00:00 10.5 8 Nordeste 28 Sudeste 1.6 -- -- 95
2020-01-21 12:00:00 11 6 Nordeste 26 Este 2.4 -- -- 95
2020-01-21 11:00:00 11.1 15 Este 37 Sudeste 3.4 -- -- 96
2020-01-21 10:00:00 10.4 15 Este 38 Sudeste 7 -- -- 99
2020-01-21 09:00:00 9.4 10 Nordeste 27 Nordeste 3.6 -- -- 98
2020-01-21 08:00:00 8.8 3 Nordeste 22 Oeste 12.2 -- -- 98
2020-01-21 07:00:00 8.1 10 Sur 30 Este 4.2 -- -- 98
2020-01-21 06:00:00 8 22 Sudeste 58 Norte 17.8 -- -- 98
2020-01-21 05:00:00 7.9 17 Norte 51 Nordeste 17.8 -- -- 97
2020-01-21 04:00:00 8.2 23 Nordeste 56 Norte 2.8 -- -- 98
2020-01-21 03:00:00 8.2 21 Nordeste 41 Nordeste 8.2 -- -- 98
2020-01-21 02:00:00 7.7 14 Norte 28 Norte 2.6 -- -- 98
2020-01-21 01:00:00 7.9 9 Norte 19 Nordeste 2.2 -- -- 98
2020-01-21 00:00:00 7.5 8 Noroeste 24 Norte 11.4 -- -- 98
2020-01-20 23:00:00 7.6 8 Este 49 Norte 12.6 -- -- 98
2020-01-20 22:00:00 7.8 27 Norte 49 Norte 3.2 -- -- 98
2020-01-20 21:00:00 7.7 22 Norte 60 Nordeste 0.6 -- -- 98
2020-01-20 20:00:00 7.3 24 Nordeste 53 Norte 4.2 -- -- 97
2020-01-20 19:00:00 7.7 22 Nordeste 60 Nordeste 5.6 -- -- 97
2020-01-20 18:00:00 7.5 18 Nordeste 58 Nordeste 2.8 -- -- 98
2020-01-20 17:00:00 7.1 20 Nordeste 47 Norte 2.8 -- -- 97
2020-01-20 16:00:00 7.2 20 Nordeste 47 Norte 4.4 -- -- 98
2020-01-20 15:00:00 6.7 22 Norte 51 Nordeste 2 -- -- 97
2020-01-20 14:00:00 7.2 28 Nordeste 67 Nordeste 1.6 -- -- 97
2020-01-20 13:00:00 7.2 24 Nordeste 54 Nordeste 2.6 -- -- 97
2020-01-20 12:00:00 7.2 26 Nordeste 58 Nordeste 2.2 -- -- 97
2020-01-20 11:00:00 6.3 23 Nordeste 57 Nordeste 2.6 -- -- 97
2020-01-20 10:00:00 6.1 30 Nordeste 61 Norte 0.6 -- -- 97
2020-01-20 09:00:00 6.3 26 Nordeste 59 Nordeste 1.2 -- -- 97
2020-01-20 08:00:00 5.7 24 Nordeste 49 Nordeste 7.6 -- -- 97
2020-01-20 07:00:00 5.1 21 Norte 43 Nordeste 6.4 -- -- 97
2020-01-20 06:00:00 4.6 21 Norte 42 Norte 6.6 -- -- 96
2020-01-20 05:00:00 4.5 14 Norte 41 Norte 6 -- -- 95
2020-01-20 04:00:00 5.5 19 Nordeste 55 Nordeste 4.6 -- -- 95
2020-01-20 03:00:00 6.1 24 Nordeste 57 Nordeste 4.6 -- -- 95
2020-01-20 02:00:00 6.6 29 Nordeste 61 Nordeste 4.6 -- -- 94
2020-01-20 01:00:00 6.8 29 Nordeste 63 Este 3.4 -- -- 93
2020-01-20 00:00:00 7.3 31 Nordeste 68 Norte 2 -- -- 91
2020-01-19 23:00:00 7.6 31 Nordeste 57 Norte 1.2 -- -- 92
2020-01-19 22:00:00 7.4 34 Nordeste 64 Nordeste 3.4 -- -- 93
2020-01-19 21:00:00 7.3 27 Nordeste 63 Nordeste 2.2 -- -- 92
2020-01-19 20:00:00 7.6 31 Nordeste 58 Nordeste 2.6 -- -- 92
2020-01-19 19:00:00 7.7 27 Nordeste 59 Nordeste 3.2 -- -- 94
2020-01-19 18:00:00 7.3 23 Nordeste 48 Este 2.8 -- -- 96
2020-01-19 17:00:00 7 27 Nordeste 56 Norte 4.4 -- -- 96
2020-01-19 16:00:00 7 23 Nordeste 57 Nordeste 6.6 -- -- 95
2020-01-19 15:00:00 7.6 26 Nordeste 54 Norte 8.4 -- -- 95
2020-01-19 14:00:00 7.8 23 Norte 42 Norte 3.8 -- -- 93
2020-01-19 13:00:00 8.1 6 Noroeste 12 Noroeste 5.6 -- -- 94
2020-01-19 12:00:00 8.3 8 Noroeste 17 Norte 3 -- -- 93
2020-01-19 11:00:00 8.9 8 Norte 21 Norte 2.2 -- -- 92
2020-01-19 10:00:00 9.7 3 Sur 6 Sur 1 -- -- 92
2020-01-19 09:00:00 9.8 3 Sur 5 Norte 0 -- -- 90
2020-01-19 08:00:00 10.3 0 Calma 13 Oeste 0 -- -- 87
2020-01-19 07:00:00 10.1 0 Calma 5 Este 0 -- -- 90
2020-01-19 06:00:00 10.4 3 Oeste 9 Sudoeste 0 -- -- 88
2020-01-19 05:00:00 10.2 4 Sur 13 Sur 0 -- -- 87
2020-01-19 04:00:00 11.1 8 Sur 17 Sur 0 -- -- 87
2020-01-19 03:00:00 11.7 8 Sur 25 Oeste 0.6 -- -- 86
2020-01-19 02:00:00 10.9 4 Sudoeste 12 Oeste 0 -- -- 81
2020-01-19 01:00:00 10.6 3 Este 18 Sur 0 -- -- 77
2020-01-19 00:00:00 12 5 Sur 14 Sudoeste 0 -- -- 73
2020-01-18 23:00:00 11.9 0 Calma 8 Sur 0 -- -- 73
2020-01-18 22:00:00 12.7 6 Sur 20 Sur 0 -- -- 66
2020-01-18 21:00:00 14.1 11 Sur 19 Sur 0 -- -- 62
2020-01-18 20:00:00 13.3 6 Sudoeste 14 Sudoeste 0 -- -- 66
2020-01-18 19:00:00 14.4 7 Sudoeste 12 Sudoeste 0 -- -- 60
2020-01-18 18:00:00 16.3 7 Sur 19 Sur 0 -- -- 53
2020-01-18 17:00:00 19.2 8 Sudoeste 26 Sudoeste 0 -- -- 46
2020-01-18 16:00:00 20.1 8 Oeste 24 Sudoeste 0 -- -- 45
2020-01-18 15:00:00 19.4 14 Sudoeste 31 Oeste 0 -- -- 45
2020-01-18 14:00:00 17.7 13 Sur 22 Sur 0 -- -- 53
2020-01-18 13:00:00 14.1 6 Sur 11 Sur 0 -- -- 65
2020-01-18 12:00:00 12.6 7 Sudoeste 14 Sur 0 -- -- 69
2020-01-18 11:00:00 11.2 0 Calma 14 Sur 0 -- -- 75
2020-01-18 10:00:00 9.7 8 Sur 12 Sur 0 -- -- 78
2020-01-18 09:00:00 7.8 6 Sur 10 Sudoeste 0 -- -- 87
2020-01-18 08:00:00 6.4 4 Sudeste 7 Sudeste 0 -- -- 89
2020-01-18 07:00:00 6 3 Sudeste 8 Sudeste 0 -- -- 89
2020-01-18 06:00:00 6.5 0 Calma 6 Sudoeste 0 -- -- 86
2020-01-18 05:00:00 6.9 2 Sur 9 Sudoeste 0 -- -- 84
2020-01-18 04:00:00 8 3 Sur 7 Sudoeste 0 -- -- 80
2020-01-18 03:00:00 9.3 5 Sur 9 Sur 0 -- -- 75
2020-01-18 02:00:00 8.9 3 Sur 9 Sur 0 -- -- 77
2020-01-18 01:00:00 10.1 6 Sur 11 Sur 0 -- -- 71
2020-01-18 00:00:00 10.5 6 Sur 13 Sur 0 -- -- 69
2020-01-17 23:00:00 10.4 6 Sudoeste 12 Sudeste 0 -- -- 69
2020-01-17 22:00:00 9.2 9 Sur 13 Sudeste 0 -- -- 74
2020-01-17 21:00:00 9.7 8 Sur 13 Sur 0 -- -- 71
2020-01-17 20:00:00 12 3 Sur 15 Sur 0 -- -- 62
2020-01-17 19:00:00 13.5 5 Sur 21 Noroeste 0 -- -- 59
2020-01-17 18:00:00 16 9 Oeste 20 Oeste 0 -- -- 50
2020-01-17 17:00:00 17.3 9 Oeste 25 Oeste 0 -- -- 48
2020-01-17 16:00:00 17.8 11 Noroeste 32 Noroeste 0 -- -- 48
2020-01-17 15:00:00 18.5 14 Noroeste 35 Noroeste 0 -- -- 47
2020-01-17 14:00:00 19 18 Oeste 44 Oeste 0 -- -- 45
2020-01-17 13:00:00 18.8 17 Oeste 38 Oeste 0 -- -- 46
2020-01-17 12:00:00 18.2 11 Oeste 22 Oeste 0 -- -- 47
2020-01-17 11:00:00 16.9 8 Oeste 23 Oeste 0 -- -- 45
2020-01-17 10:00:00 13.6 6 Sudoeste 22 Oeste 0 -- -- 53
2020-01-17 09:00:00 8.5 8 Sudoeste 13 Sudoeste 0 -- -- 68
2020-01-17 08:00:00 5.6 6 Sur 13 Oeste 0 -- -- 76
2020-01-17 07:00:00 7.1 9 Sur 15 Sur 0 -- -- 71
2020-01-17 06:00:00 7.6 7 Sur 14 Sur 0 -- -- 71
2020-01-17 05:00:00 8.5 10 Sur 22 Sur 0 -- -- 70
2020-01-17 04:00:00 7.1 5 Sur 13 Sur 0 -- -- 79
2020-01-17 03:00:00 8.9 9 Sur 19 Sur 0 -- -- 75
2020-01-17 02:00:00 7.7 11 Sur 14 Sur 0 -- -- 83
2020-01-17 01:00:00 8.5 6 Sur 11 Sur 0 -- -- 80
2020-01-17 00:00:00 9 7 Sur 14 Sur 0 -- -- 80
2020-01-16 23:00:00 8.4 10 Sur 13 Sur 0 -- -- 87
2020-01-16 22:00:00 7 8 Sur 12 Sur 0 -- -- 91
2020-01-16 21:00:00 8 3 Sur 8 Sur 0 -- -- 88
2020-01-16 20:00:00 8.7 4 Sudoeste 6 Sur 0 -- -- 84
2020-01-16 19:00:00 11.5 3 Sudoeste 6 Sudoeste 0 -- -- 77
2020-01-16 18:00:00 16.1 2 Norte 8 Nordeste 0 -- -- 63
2020-01-16 17:00:00 18.8 6 Este 10 Este 0 -- -- 54
2020-01-16 16:00:00 19.8 5 Norte 10 Norte 0 -- -- 49
2020-01-16 15:00:00 20.1 4 Norte 9 Noroeste 0 -- -- 47
2020-01-16 14:00:00 19 3 Nordeste 9 Sur 0 -- -- 49
2020-01-16 13:00:00 17.7 3 Oeste 10 Sudoeste 0 -- -- 52
2020-01-16 12:00:00 16 5 Sudoeste 12 Sudoeste 0 -- -- 57
2020-01-16 11:00:00 13.5 9 Sur 14 Sur 0 -- -- 62
2020-01-16 10:00:00 11.1 7 Sur 14 Sur 0 -- -- 73
2020-01-16 09:00:00 7.5 8 Sur 14 Sur 0 -- -- 84
2020-01-16 08:00:00 7.1 9 Sur 14 Sur 0 -- -- 84
2020-01-16 07:00:00 7.5 8 Sur 13 Sur 0 -- -- 81
2020-01-16 06:00:00 8.2 9 Sur 15 Sur 0 -- -- 79
2020-01-16 05:00:00 8.3 10 Sur 15 Sur 0 -- -- 78
2020-01-16 04:00:00 8.6 8 Sur 17 Sur 0 -- -- 76
2020-01-16 03:00:00 8.8 6 Sur 14 Sur 0 -- -- 75
2020-01-16 02:00:00 9.6 10 Sur 15 Sur 0 -- -- 72
2020-01-16 01:00:00 9.2 6 Sur 17 Sur 0 -- -- 73
2020-01-16 00:00:00 9.2 10 Sur 16 Sur 0 -- -- 73
2020-01-15 23:00:00 9.4 10 Sur 14 Sur 0 -- -- 73
2020-01-15 22:00:00 8.9 7 Sur 12 Sur 0 -- -- 76
2020-01-15 21:00:00 8.4 6 Sur 10 Sur 0 -- -- 77
2020-01-15 20:00:00 8.8 0 Calma 8 Sur 0 -- -- 74
2020-01-15 19:00:00 11.7 3 Sur 13 Oeste 0 -- -- 66
2020-01-15 18:00:00 16.5 4 Oeste 12 Oeste 0 -- -- 50
2020-01-15 17:00:00 19.5 3 Sudoeste 8 Sur 0 -- -- 41
2020-01-15 16:00:00 19.5 3 Sudoeste 10 Oeste 0 -- -- 43
2020-01-15 15:00:00 18.7 3 Oeste 17 Sudoeste 0 -- -- 46
2020-01-15 14:00:00 18.4 9 Sudoeste 18 Sur 0 -- -- 46
2020-01-15 13:00:00 16.9 9 Oeste 17 Sudoeste 0 -- -- 50
2020-01-15 12:00:00 14.3 6 Sudoeste 16 Oeste 0 -- -- 55
2020-01-15 11:00:00 11.7 8 Sur 17 Sur 0 -- -- 63
2020-01-15 10:00:00 8.7 9 Sur 16 Sur 0 -- -- 72
2020-01-15 09:00:00 5.2 3 Sudeste 14 Sur 0 -- -- 81
2020-01-15 08:00:00 5.2 10 Sur 14 Sur 0 -- -- 82
2020-01-15 07:00:00 4.7 9 Sur 13 Sur 0 -- -- 84
2020-01-15 06:00:00 4.5 3 Sur 14 Sur 0 -- -- 80
2020-01-15 05:00:00 5.4 9 Sur 14 Sur 0 -- -- 80
2020-01-15 04:00:00 5.5 9 Sur 17 Sur 0 -- -- 78
2020-01-15 03:00:00 5.5 9 Sur 14 Sur 0 -- -- 78
2020-01-15 02:00:00 4.5 7 Sur 10 Sur 0 -- -- 82
2020-01-15 01:00:00 4.7 7 Sur 12 Sur 0 -- -- 79
2020-01-15 00:00:00 5.2 2 Sudeste 14 Sur 0 -- -- 75
2020-01-14 23:00:00 3.3 4 Sur 9 Sur 0 -- -- 82
2020-01-14 22:00:00 4.5 3 Sur 9 Sur 0 -- -- 76
2020-01-14 21:00:00 5.3 6 Sur 10 Sur 0 -- -- 79
2020-01-14 20:00:00 5.4 4 Sur 5 Sur 0 -- -- 76
2020-01-14 19:00:00 9.3 3 Sur 9 Norte 0 -- -- 64
2020-01-14 18:00:00 14.7 8 Norte 14 Norte 0 -- -- 43
2020-01-14 17:00:00 17.4 4 Norte 10 Noroeste 0 -- -- 37
2020-01-14 16:00:00 18.1 4 Nordeste 9 Norte 0 -- -- 36
2020-01-14 15:00:00 18.9 4 Sudoeste 11 Sudoeste 0 -- -- 35
2020-01-14 14:00:00 17.7 5 Sudoeste 16 Sudoeste 0 -- -- 37
2020-01-14 13:00:00 16.4 5 Sudoeste 19 Sur 0 -- -- 41
2020-01-14 12:00:00 14.6 11 Sur 21 Sur 0 -- -- 44
2020-01-14 11:00:00 12 8 Sur 17 Sudoeste 0 -- -- 54
2020-01-14 10:00:00 8.9 9 Sur 15 Sur 0 -- -- 64
2020-01-14 09:00:00 5 7 Sur 15 Sur 0 -- -- 80
2020-01-14 08:00:00 3.4 5 Sur 10 Sur 0 -- -- 81
2020-01-14 07:00:00 4.8 5 Sur 17 Sur 0 -- -- 75
2020-01-14 06:00:00 6.2 8 Sur 17 Sur 0 -- -- 70
2020-01-14 05:00:00 6.7 7 Sur 18 Sur 0 -- -- 68
2020-01-14 04:00:00 6.8 8 Sudoeste 19 Sur 0 -- -- 68
2020-01-14 03:00:00 5.4 8 Sur 14 Sur 0 -- -- 72
2020-01-14 02:00:00 6.1 4 Sur 13 Sudoeste 0 -- -- 68
2020-01-14 01:00:00 6.9 7 Sudeste 16 Sur 0 -- -- 65
2020-01-14 00:00:00 7.4 8 Sur 13 Sur 0 -- -- 64
2020-01-13 23:00:00 7.3 9 Sur 13 Sur 0 -- -- 66
2020-01-13 22:00:00 7.3 4 Sur 11 Sur 0 -- -- 66
2020-01-13 21:00:00 7.8 5 Sur 10 Sur 0 -- -- 64
2020-01-13 20:00:00 8.4 5 Sur 12 Sur 0 -- -- 62
2020-01-13 19:00:00 11.3 4 Sur 17 Noroeste 0 -- -- 52
2020-01-13 18:00:00 14.5 12 Oeste 27 Noroeste 0 -- -- 39
2020-01-13 17:00:00 17.4 4 Noroeste 8 Noroeste 0 -- -- 41
2020-01-13 16:00:00 19.1 4 Sudoeste 14 Oeste 0 -- -- 34
2020-01-13 15:00:00 19 6 Oeste 15 Sudoeste 0 -- -- 36
2020-01-13 14:00:00 18.1 6 Sudoeste 14 Sur 0 -- -- 37
2020-01-13 13:00:00 15.7 6 Sudoeste 13 Sur 0 -- -- 46
2020-01-13 12:00:00 13 6 Sudoeste 20 Sur 0 -- -- 48
2020-01-13 11:00:00 9.9 11 Sur 18 Sur 0 -- -- 58
2020-01-13 10:00:00 6.8 10 Sur 18 Sur 0 -- -- 67
2020-01-13 09:00:00 3.2 8 Sur 13 Sur 0 -- -- 82
2020-01-13 08:00:00 3.3 8 Sur 16 Sur 0 -- -- 78
2020-01-13 07:00:00 2.9 8 Sur 15 Sur 0 -- -- 81
2020-01-13 06:00:00 2.7 8 Sur 14 Sur 0 -- -- 83
2020-01-13 05:00:00 3 6 Sur 15 Sur 0 -- -- 82
2020-01-13 04:00:00 3 8 Sur 15 Sur 0 -- -- 84
2020-01-13 03:00:00 2.8 9 Sur 15 Sudoeste 0 -- -- 87
2020-01-13 02:00:00 2.3 7 Sur 12 Sur 0 -- -- 86
2020-01-13 01:00:00 2.9 8 Sur 13 Sur 0 -- -- 85
2020-01-13 00:00:00 2.6 6 Sur 10 Sur 0 -- -- 86
2020-01-12 23:00:00 2.7 9 Sur 13 Sur 0 -- -- 92
2020-01-12 22:00:00 0.7 3 Sur 6 Sudoeste 0 -- -- 89
2020-01-12 21:00:00 1.2 0 Calma 4 Sudeste 0 -- -- 86
2020-01-12 20:00:00 3 2 Sur 4 Sur 0 -- -- 82
2020-01-12 19:00:00 6.6 3 Nordeste 8 Norte 0 -- -- 72
2020-01-12 18:00:00 11.7 6 Nordeste 10 Norte 0 -- -- 65
2020-01-12 17:00:00 14.7 5 Nordeste 11 Nordeste 0 -- -- 46
2020-01-12 16:00:00 15.5 6 Norte 13 Nordeste 0 -- -- 42
2020-01-12 15:00:00 15.7 5 Nordeste 12 Nordeste 0 -- -- 37
2020-01-12 14:00:00 14.8 4 Nordeste 9 Norte 0 -- -- 37
2020-01-12 13:00:00 14.1 2 Sudeste 10 Sur 0 -- -- 40
2020-01-12 12:00:00 12.3 6 Sur 12 Sur 0 -- -- 51
2020-01-12 11:00:00 9.9 5 Sudoeste 14 Sudoeste 0 -- -- 61
2020-01-12 10:00:00 6.8 9 Sur 15 Sur 0 -- -- 73
2020-01-12 09:00:00 2.7 6 Sur 12 Sur 0 -- -- 88
2020-01-12 08:00:00 2.5 8 Sur 12 Sur 0 -- -- 87
2020-01-12 07:00:00 2.4 5 Sur 14 Sur 0 -- -- 89
2020-01-12 06:00:00 2.2 6 Sur 12 Sur 0 -- -- 92
2020-01-12 05:00:00 1.3 5 Sur 9 Sur 0 -- -- 93
2020-01-12 04:00:00 1.9 4 Sur 10 Sur 0 -- -- 92
2020-01-12 03:00:00 2.4 9 Sur 12 Sur 0 -- -- 95
2020-01-12 02:00:00 0.4 2 Sudoeste 6 Oeste 0 -- -- 92
2020-01-12 01:00:00 1 3 Sudoeste 5 Sur 0 -- -- 91
2020-01-12 00:00:00 1.8 3 Sur 6 Sur 0 -- -- 89
2020-01-11 23:00:00 3.6 2 Sur 9 Sur 0 -- -- 88
2020-01-11 22:00:00 4.8 6 Sur 11 Sur 0 -- -- 92
2020-01-11 21:00:00 3.6 3 Sur 6 Sudeste 0 -- -- 87
2020-01-11 20:00:00 5.1 0 Calma 5 Sur 0 -- -- 81
2020-01-11 19:00:00 8 4 Sudeste 6 Sur 0 -- -- 77
2020-01-11 18:00:00 12.2 3 Sudeste 8 Sur 0 -- -- 64
2020-01-11 17:00:00 15.8 4 Sur 9 Sur 0 -- -- 50
2020-01-11 16:00:00 16.5 4 Sur 15 Sur 0 -- -- 48
2020-01-11 15:00:00 16.3 4 Oeste 10 Oeste 0 -- -- 50
2020-01-11 14:00:00 15.7 4 Sur 8 Sudoeste 0 -- -- 50
2020-01-11 13:00:00 14.4 3 Sudeste 12 Sur 0 -- -- 53
2020-01-11 12:00:00 12.6 6 Sur 13 Sur 0 -- -- 58
2020-01-11 11:00:00 10.4 8 Sur 15 Sur 0 -- -- 66
2020-01-11 10:00:00 7.4 9 Sur 15 Sur 0 -- -- 86
2020-01-11 09:00:00 3.1 8 Sur 12 Sur 0 -- -- 95
2020-01-11 08:00:00 3 3 Sudoeste 6 Sur 0 -- -- 92
2020-01-11 07:00:00 3.9 2 Sudoeste 12 Sur 0 -- -- 90
2020-01-11 06:00:00 4.7 8 Sur 12 Sur 0 -- -- 93
2020-01-11 05:00:00 3.8 4 Sur 7 Sur 0 -- -- 91
2020-01-11 04:00:00 4.8 5 Sur 10 Sur 0 -- -- 91
2020-01-11 03:00:00 4.7 5 Sudeste 7 Sudeste 0 -- -- 87
2020-01-11 02:00:00 6.7 2 Sur 7 Sur 0 -- -- 85
2020-01-11 01:00:00 8.9 2 Sudeste 8 Sur 0 -- -- 85
2020-01-11 00:00:00 9.1 0 Calma 5 Sur 0 -- -- 82
2020-01-10 23:00:00 10.7 3 Nordeste 13 Noroeste 0 -- -- 74
2020-01-10 22:00:00 11.8 7 Noroeste 21 Nordeste 0 -- -- 71
2020-01-10 21:00:00 12.2 12 Nordeste 28 Este 0 -- -- 64
2020-01-10 20:00:00 12.5 16 Nordeste 35 Nordeste 0 -- -- 67
2020-01-10 19:00:00 12.1 15 Nordeste 41 Nordeste 0 -- -- 69
2020-01-10 18:00:00 12.2 19 Nordeste 41 Nordeste 0 -- -- 68
2020-01-10 17:00:00 11.9 21 Nordeste 46 Nordeste 0 -- -- 75
2020-01-10 16:00:00 14.9 19 Nordeste 33 Nordeste 0 -- -- 60
2020-01-10 15:00:00 16 12 Nordeste 23 Nordeste 0 -- -- 50
2020-01-10 14:00:00 16 12 Nordeste 23 Nordeste 0 -- -- 48
2020-01-10 13:00:00 15.2 4 Sur 12 Sur 0 -- -- 55
2020-01-10 12:00:00 12 8 Sur 13 Sur 0 -- -- 73
2020-01-10 11:00:00 9.8 9 Sur 14 Sudeste 0 -- -- 83
2020-01-10 10:00:00 7.5 6 Sur 10 Sur 0 -- -- 94
2020-01-10 09:00:00 6 0 Calma 6 Nordeste 0 -- -- 93
2020-01-10 08:00:00 6.4 3 Oeste 12 Sur 0 -- -- 90
2020-01-10 07:00:00 7.1 6 Sur 11 Sudoeste 0 -- -- 95
2020-01-10 06:00:00 5 4 Sur 8 Sur 0 -- -- 95
2020-01-10 05:00:00 4.5 0 Calma 7 Sudoeste 0 -- -- 94
2020-01-10 04:00:00 4.3 2 Sudoeste 6 Sur 0 -- -- 92
2020-01-10 03:00:00 6.4 3 Sur 13 Sudeste 0 -- -- 94
2020-01-10 02:00:00 5.2 4 Sudoeste 9 Sur 0 -- -- 93
2020-01-10 01:00:00 6.1 5 Sur 10 Sur 0 -- -- 95
2020-01-10 00:00:00 4.7 3 Sur 8 Sur 0 -- -- 94
2020-01-09 23:00:00 4.9 0 Calma 5 Oeste 0 -- -- 92
2020-01-09 22:00:00 6.3 0 Calma 6 Sur 0 -- -- 92
2020-01-09 21:00:00 7 5 Sudoeste 8 Sudoeste 0 -- -- 92
2020-01-09 20:00:00 7 4 Sur 7 Sudeste 0 -- -- 87
2020-01-09 19:00:00 9.1 3 Sudeste 7 Sudeste 0 -- -- 80
2020-01-09 18:00:00 13.2 2 Este 9 Nordeste 0 -- -- 72
2020-01-09 17:00:00 16.8 5 Nordeste 10 Nordeste 0 -- -- 60
2020-01-09 16:00:00 17.3 3 Sudeste 8 Noroeste 0 -- -- 53
2020-01-09 15:00:00 17.1 4 Sudoeste 10 Sudoeste 0 -- -- 53
2020-01-09 14:00:00 16.2 5 Sur 14 Sudoeste 0 -- -- 57
2020-01-09 13:00:00 14.7 10 Sur 16 Sur 0 -- -- 62
2020-01-09 12:00:00 12.2 10 Sur 18 Sur 0 -- -- 69
2020-01-09 11:00:00 9.9 9 Sudoeste 20 Sur 0 -- -- 77
2020-01-09 10:00:00 7.2 12 Sur 19 Sur 0 -- -- 89
2020-01-09 09:00:00 4.9 6 Sur 14 Sur 0 -- -- 94
2020-01-09 08:00:00 5.2 9 Sur 17 Sur 0 -- -- 94
2020-01-09 07:00:00 5.9 8 Sur 16 Sur 0 -- -- 96
2020-01-09 06:00:00 5.2 8 Sur 13 Sur 0 -- -- 96
2020-01-09 05:00:00 6.4 6 Sur 10 Sur 0 -- -- 97
2020-01-09 04:00:00 5.7 5 Sur 10 Sur 0 -- -- 97
2020-01-09 03:00:00 3.9 4 Sudoeste 6 Sur 0 -- -- 96
2020-01-09 02:00:00 4.6 5 Sur 8 Sur 0 -- -- 96
2020-01-09 01:00:00 4.4 5 Sur 8 Sur 0 -- -- 94
2020-01-09 00:00:00 5.9 6 Sur 8 Sur 0 -- -- 95
2020-01-08 23:00:00 6.1 4 Sur 11 Sudoeste 0 -- -- 94
2020-01-08 22:00:00 5.3 5 Sudoeste 7 Sudoeste 0 -- -- 91
2020-01-08 21:00:00 6.5 2 Sur 7 Sur 0 -- -- 90
2020-01-08 20:00:00 8.2 3 Sudeste 6 Sur 0 -- -- 88
2020-01-08 19:00:00 10 0 Calma 4 Sudeste 0 -- -- 87
2020-01-08 18:00:00 11.7 0 Calma 6 Norte 0 -- -- 84
2020-01-08 17:00:00 13.4 2 Norte 8 Noroeste 0 -- -- 81
2020-01-08 16:00:00 13 5 Noroeste 9 Noroeste 0 -- -- 83
2020-01-08 15:00:00 12.6 3 Norte 7 Norte 0 -- -- 84
2020-01-08 14:00:00 12 4 Nordeste 9 Nordeste 0 -- -- 84
2020-01-08 13:00:00 12.9 6 Norte 10 Norte 0 -- -- 74
2020-01-08 12:00:00 12.7 3 Noroeste 6 Norte 0 -- -- 59
2020-01-08 11:00:00 10.6 3 Oeste 8 Oeste 0 -- -- 71
2020-01-08 10:00:00 8.1 0 Calma 8 Sur 0 -- -- 79
2020-01-08 09:00:00 4 4 Sur 9 Sur 0 -- -- 89
2020-01-08 08:00:00 3.8 6 Sur 10 Sur 0 -- -- 87
2020-01-08 07:00:00 5.4 6 Sur 14 Sur 0 -- -- 82
2020-01-08 06:00:00 5.6 9 Sur 17 Sur 0 -- -- 84
2020-01-08 05:00:00 4.9 9 Sur 15 Sur 0 -- -- 90
2020-01-08 04:00:00 5.5 9 Sur 15 Sur 0 -- -- 93
2020-01-08 03:00:00 5.1 9 Sur 14 Sur 0 -- -- 96
2020-01-08 02:00:00 3.5 6 Sur 10 Sur 0 -- -- 95
2020-01-08 01:00:00 3.2 4 Sudoeste 7 Sudoeste 0 -- -- 94
2020-01-08 00:00:00 3.2 2 Sudoeste 10 Sudoeste 0 -- -- 92
2020-01-07 23:00:00 4.1 3 Sur 8 Sudoeste 0 -- -- 92
2020-01-07 22:00:00 5.1 4 Sudoeste 7 Sudeste 0 -- -- 93
2020-01-07 21:00:00 4.4 3 Sur 5 Sur 0 -- -- 85
2020-01-07 20:00:00 6.4 2 Sur 6 Sudeste 0 -- -- 85
2020-01-07 19:00:00 9.5 2 Sudoeste 9 Nordeste 0 -- -- 78
2020-01-07 18:00:00 13.4 6 Nordeste 11 Nordeste 0 -- -- 73
2020-01-07 17:00:00 16.5 4 Nordeste 9 Nordeste 0 -- -- 59
2020-01-07 16:00:00 18.4 3 Norte 7 Oeste 0 -- -- 44
2020-01-07 15:00:00 17.9 3 Sur 9 Sudoeste 0 -- -- 45
2020-01-07 14:00:00 16.6 3 Sudoeste 9 Sur 0 -- -- 51
2020-01-07 13:00:00 14.6 5 Sur 12 Sudoeste 0 -- -- 59
2020-01-07 12:00:00 12.3 5 Sudoeste 13 Sudoeste 0 -- -- 65
2020-01-07 11:00:00 9.7 9 Sur 14 Sur 0 -- -- 76
2020-01-07 10:00:00 6.8 7 Sur 15 Sur 0 -- -- 91
2020-01-07 09:00:00 3.8 3 Sudoeste 13 Sur 0 -- -- 96
2020-01-07 08:00:00 3.4 8 Sur 13 Sur 0 -- -- 96
2020-01-07 07:00:00 2.2 8 Sur 10 Sur 0 -- -- 95
2020-01-07 06:00:00 2.3 3 Sudoeste 6 Sudoeste 0 -- -- 93
2020-01-07 05:00:00 4 3 Sur 12 Sur 0 -- -- 93
2020-01-07 04:00:00 4.9 6 Sur 15 Sur 0 -- -- 95
2020-01-07 03:00:00 4.4 6 Sur 10 Sur 0 -- -- 94
2020-01-07 02:00:00 5.1 6 Sur 11 Sur 0 -- -- 95
2020-01-07 01:00:00 4.7 5 Sur 11 Sur 0 -- -- 94
2020-01-07 00:00:00 3.3 5 Sur 7 Sur 0 -- -- 93
2020-01-06 23:00:00 3.3 3 Sur 5 Sur 0 -- -- 91
2020-01-06 22:00:00 3.9 2 Sur 6 Sur 0 -- -- 89
2020-01-06 21:00:00 5 0 Calma 5 Sudoeste 0 -- -- 87
2020-01-06 20:00:00 6.8 3 Sudoeste 5 Sur 0 -- -- 85
2020-01-06 19:00:00 9.9 0 Calma 10 Nordeste 0 -- -- 82
2020-01-06 18:00:00 12.1 8 Nordeste 14 Norte 0 -- -- 78
2020-01-06 17:00:00 14.8 7 Norte 17 Norte 0 -- -- 70
2020-01-06 16:00:00 16.5 7 Nordeste 14 Nordeste 0 -- -- 63
2020-01-06 15:00:00 17 4 Norte 10 Norte 0 -- -- 59
2020-01-06 14:00:00 16.3 4 Este 11 Sur 0 -- -- 59
2020-01-06 13:00:00 15.1 5 Sur 13 Sudoeste 0 -- -- 64
2020-01-06 12:00:00 13.6 6 Sur 11 Sudoeste 0 -- -- 69
2020-01-06 11:00:00 11.4 4 Sudoeste 9 Noroeste 0 -- -- 78
2020-01-06 10:00:00 10 4 Sur 8 Sudoeste 0 -- -- 82